Terminal Aerodrome Forecast
Issued by NWS Cleveland, OH

Home | Current Version | Previous Version | Graphics & Text | Print | Product List | Glossary On
Versions: 1 2 3 4 5 6 7 8 9 10 11 12 13 14 15 16 17 18 19 20 21 22 23
886
FTUS41 KCLE 230948 AAA
TAFMFD
TAF AMD
KMFD 230948Z 2310/2406 02009KT 5SM -RA BR OVC005
     FM231200 04010KT 2SM -RA BR OVC004
     FM232200 03006KT 4SM BR OVC010=

USA.gov is the U.S. government's official web portal to all federal, state and local government web resources and services.